createdAt,value
2022-12-06T00:00:11.699Z,101531.50
2022-12-06T00:01:16.241Z,101527.94
2022-12-06T00:02:18.945Z,101526.13
2022-12-06T00:03:20.672Z,101534.78
2022-12-06T00:04:24.688Z,101527.75
2022-12-06T00:05:26.471Z,101529.53
2022-12-06T00:06:31.768Z,101529.53
2022-12-06T00:07:33.482Z,101528.66
2022-12-06T00:08:37.330Z,101532.16
2022-12-06T00:09:39.007Z,101529.53
2022-12-06T00:10:41.675Z,101528.75
2022-12-06T00:11:43.374Z,101522.59
2022-12-06T00:12:45.980Z,101526.97
2022-12-06T00:13:48.564Z,101532.22
2022-12-06T00:14:51.164Z,101525.22
2022-12-06T00:15:52.792Z,101527.84
2022-12-06T00:16:55.540Z,101532.16
2022-12-06T00:17:57.245Z,101530.38
2022-12-06T00:19:00.660Z,101530.38
2022-12-06T00:20:04.294Z,101523.38
2022-12-06T00:21:08.865Z,101531.25
2022-12-06T00:22:11.771Z,101526.00
2022-12-06T00:23:17.616Z,101526.00
2022-12-06T00:24:22.769Z,101527.72
2022-12-06T00:25:24.351Z,101528.63
2022-12-06T00:26:27.598Z,101529.41
2022-12-06T00:27:29.254Z,101530.25
2022-12-06T00:28:31.922Z,101531.13
2022-12-06T00:29:34.749Z,101531.88
2022-12-06T00:30:36.382Z,101531.84
2022-12-06T00:31:39.175Z,101527.44
2022-12-06T00:32:40.914Z,101525.69
2022-12-06T00:33:44.060Z,101528.31
2022-12-06T00:34:46.151Z,101523.88
2022-12-06T00:35:57.203Z,101517.81
2022-12-06T00:37:00.371Z,101525.69
2022-12-06T00:38:02.388Z,101522.19
2022-12-06T00:39:07.239Z,101523.88
2022-12-06T00:40:09.621Z,101517.81
2022-12-06T00:41:14.149Z,101523.88
2022-12-06T00:42:15.804Z,101525.59
2022-12-06T00:43:18.443Z,101515.09
2022-12-06T00:44:31.070Z,101520.34
2022-12-06T00:45:32.855Z,101517.72
2022-12-06T00:46:38.972Z,101521.16
2022-12-06T00:47:40.816Z,101509.72
2022-12-06T00:48:43.687Z,101514.97
2022-12-06T00:49:45.291Z,101515.81
2022-12-06T00:50:48.202Z,101511.41
2022-12-06T00:51:51.243Z,101514.97
2022-12-06T00:52:53.840Z,101521.94
2022-12-06T00:53:55.678Z,101514.06
2022-12-06T00:54:58.303Z,101513.13
2022-12-06T00:56:00.050Z,101509.56
2022-12-06T00:57:02.687Z,101509.56
2022-12-06T00:58:04.365Z,101506.91
2022-12-06T00:59:07.178Z,101507.75
2022-12-06T01:00:10.116Z,101513.00
2022-12-06T01:01:15.545Z,101509.53
2022-12-06T01:02:17.321Z,101507.75
2022-12-06T01:03:20.361Z,101504.19
2022-12-06T01:04:22.017Z,101511.16
2022-12-06T01:05:25.036Z,101507.63
2022-12-06T01:06:28.617Z,101504.06
2022-12-06T01:07:32.696Z,101516.28
2022-12-06T01:08:35.788Z,101512.75
2022-12-06T01:09:38.403Z,101516.22
2022-12-06T01:10:40.446Z,101519.72
2022-12-06T01:11:42.953Z,101517.09
2022-12-06T01:12:44.831Z,101517.00
2022-12-06T01:13:47.493Z,101517.00
2022-12-06T01:14:48.988Z,101517.88
2022-12-06T01:15:51.795Z,101519.56
2022-12-06T01:16:54.647Z,101515.16
2022-12-06T01:17:56.201Z,101510.75
2022-12-06T01:19:01.883Z,101516.81
2022-12-06T01:20:04.746Z,101515.00
2022-12-06T01:21:07.985Z,101521.13
2022-12-06T01:22:09.474Z,101515.88
2022-12-06T01:23:13.368Z,101520.16
2022-12-06T01:24:14.934Z,101521.06
2022-12-06T01:25:17.514Z,101514.06
2022-12-06T01:26:21.501Z,101515.75
2022-12-06T01:27:24.072Z,101517.47
2022-12-06T01:28:25.628Z,101513.91
2022-12-06T01:29:28.120Z,101520.88
2022-12-06T01:30:29.898Z,101513.84
2022-12-06T01:31:38.212Z,101519.03
2022-12-06T01:32:40.464Z,101521.59
2022-12-06T01:33:43.531Z,101515.50
2022-12-06T01:34:45.304Z,101511.94
2022-12-06T01:35:47.786Z,101516.28
2022-12-06T01:36:49.871Z,101513.66
2022-12-06T01:37:52.383Z,101522.31
2022-12-06T01:38:57.901Z,101511.78
2022-12-06T01:40:00.953Z,101514.41
2022-12-06T01:41:02.679Z,101515.38
2022-12-06T01:42:05.680Z,101516.13
2022-12-06T01:43:34.078Z,101518.78
2022-12-06T01:44:40.979Z,101524.88
2022-12-06T01:45:43.032Z,101521.41
2022-12-06T01:46:46.159Z,101517.06
2022-12-06T01:47:47.735Z,101516.13
2022-12-06T01:48:54.381Z,101510.88
2022-12-06T01:50:00.149Z,101523.13
2022-12-06T01:51:04.154Z,101518.72
2022-12-06T01:52:10.754Z,101515.22
2022-12-06T01:53:15.487Z,101523.13
2022-12-06T01:54:20.997Z,101514.28
2022-12-06T01:55:27.052Z,101522.16
2022-12-06T01:56:29.025Z,101512.50
2022-12-06T01:57:31.791Z,101523.88
2022-12-06T01:58:38.019Z,101510.75
2022-12-06T01:59:41.238Z,101512.47
2022-12-06T02:00:42.734Z,101515.09
2022-12-06T02:01:46.954Z,101511.53
2022-12-06T02:02:48.746Z,101510.69
2022-12-06T02:03:53.479Z,101514.16
2022-12-06T02:04:57.776Z,101518.50
2022-12-06T02:06:04.241Z,101517.59
2022-12-06T02:07:07.662Z,101515.81
2022-12-06T02:08:10.674Z,101516.66
2022-12-06T02:09:14.551Z,101514.88
2022-12-06T02:10:18.198Z,101517.50
2022-12-06T02:11:20.741Z,101514.97
2022-12-06T02:12:22.359Z,101518.50
2022-12-06T02:13:26.221Z,101515.09
2022-12-06T02:14:32.789Z,101517.63
2022-12-06T02:15:44.830Z,101512.31
2022-12-06T02:16:57.617Z,101514.88
2022-12-06T02:18:07.094Z,101503.44
2022-12-06T02:19:24.268Z,101508.69
2022-12-06T02:20:33.383Z,101506.94
2022-12-06T02:21:43.836Z,101504.31
2022-12-06T02:23:17.840Z,101506.03
2022-12-06T02:24:40.012Z,101506.03
2022-12-06T02:26:03.831Z,101509.56
2022-12-06T02:27:33.356Z,101506.94
2022-12-06T02:29:10.485Z,101505.22
2022-12-06T02:30:18.551Z,101500.81
2022-12-06T02:31:26.572Z,101498.19
2022-12-06T02:32:35.803Z,101495.50
2022-12-06T02:33:43.786Z,101498.13
2022-12-06T02:34:55.371Z,101498.13
2022-12-06T02:36:04.869Z,101506.84
2022-12-06T02:37:12.358Z,101495.50
2022-12-06T02:38:17.532Z,101491.94
2022-12-06T02:39:27.101Z,101498.91
2022-12-06T02:40:35.664Z,101497.19
2022-12-06T02:41:42.739Z,101497.19
2022-12-06T02:42:50.486Z,101491.03
2022-12-06T02:43:58.601Z,101497.06
2022-12-06T02:45:05.295Z,101491.78
2022-12-06T02:46:09.198Z,101491.78
2022-12-06T02:47:16.418Z,101493.50
2022-12-06T02:48:20.748Z,101490.88
2022-12-06T02:49:26.452Z,101490.88
2022-12-06T02:50:32.973Z,101491.66
2022-12-06T02:51:37.127Z,101486.28
2022-12-06T02:52:44.089Z,101486.28
2022-12-06T02:53:50.210Z,101481.81
2022-12-06T02:54:56.592Z,101487.06
2022-12-06T02:55:59.153Z,101487.06
2022-12-06T02:57:01.637Z,101487.91
2022-12-06T02:58:03.208Z,101486.16
2022-12-06T02:59:05.984Z,101487.84
2022-12-06T03:00:36.136Z,101489.53
2022-12-06T03:01:43.353Z,101486.06
2022-12-06T03:02:46.779Z,101488.69
2022-12-06T03:04:02.061Z,101482.53
2022-12-06T03:05:15.809Z,101489.53
2022-12-06T03:11:02.644Z,101484.44
2022-12-06T03:12:08.266Z,101487.06
2022-12-06T03:13:17.330Z,101487.06
2022-12-06T03:14:22.139Z,101489.69
2022-12-06T03:15:34.419Z,101485.28
2022-12-06T03:16:47.020Z,101486.16
2022-12-06T03:17:55.381Z,101484.44
2022-12-06T03:19:00.983Z,101482.56
2022-12-06T03:20:09.649Z,101485.19
2022-12-06T03:21:15.064Z,101489.53
2022-12-06T03:22:24.106Z,101486.88
2022-12-06T03:23:30.285Z,101482.44
2022-12-06T03:24:37.010Z,101487.53
2022-12-06T03:25:39.477Z,101481.38
2022-12-06T03:26:44.976Z,101477.88
2022-12-06T03:27:48.561Z,101483.09
2022-12-06T03:28:56.197Z,101482.19
2022-12-06T03:30:01.649Z,101471.66
2022-12-06T03:31:10.670Z,101480.31
2022-12-06T03:32:16.223Z,101471.56
2022-12-06T03:33:23.767Z,101471.50
2022-12-06T03:34:29.703Z,101475.78
2022-12-06T03:35:35.255Z,101474.91
2022-12-06T03:36:39.559Z,101476.63
2022-12-06T03:37:47.239Z,101472.22
2022-12-06T03:38:53.105Z,101471.38
2022-12-06T03:40:04.188Z,101466.97
2022-12-06T03:41:07.725Z,101460.84
2022-12-06T03:42:11.209Z,101471.38
2022-12-06T03:43:12.870Z,101472.22
2022-12-06T03:44:15.596Z,101472.13
2022-12-06T03:45:17.793Z,101474.78
2022-12-06T03:46:27.648Z,101474.78
2022-12-06T03:47:35.107Z,101468.66
2022-12-06T03:48:43.633Z,101467.78
2022-12-06T03:49:48.384Z,101467.78
2022-12-06T03:50:58.679Z,101472.13
2022-12-06T03:52:01.831Z,101469.50
2022-12-06T03:53:04.548Z,101472.13
2022-12-06T03:54:07.911Z,101472.91
2022-12-06T03:55:10.830Z,101476.41
2022-12-06T03:56:12.367Z,101480.72
2022-12-06T03:57:15.192Z,101482.47
2022-12-06T03:58:16.766Z,101478.91
2022-12-06T03:59:19.337Z,101478.84
2022-12-06T04:00:21.313Z,101471.84
2022-12-06T04:01:23.896Z,101478.84
2022-12-06T04:02:25.774Z,101475.31
2022-12-06T04:03:28.294Z,101479.63
2022-12-06T04:04:31.263Z,101478.78
2022-12-06T04:05:33.781Z,101483.22
2022-12-06T04:06:35.567Z,101474.38
2022-12-06T04:07:38.476Z,101472.59
2022-12-06T04:08:41.622Z,101469.09
2022-12-06T04:10:02.688Z,101470.81
2022-12-06T04:11:06.745Z,101476.94
2022-12-06T04:12:28.334Z,101470.81
2022-12-06T04:13:31.101Z,101469.91
2022-12-06T04:14:39.105Z,101472.53
2022-12-06T04:15:41.694Z,101471.59
2022-12-06T04:17:01.813Z,101474.16
2022-12-06T04:18:11.465Z,101473.25
2022-12-06T04:19:12.964Z,101466.19
2022-12-06T04:20:16.825Z,101470.53
2022-12-06T04:21:37.019Z,101468.81
2022-12-06T04:22:56.984Z,101466.28
2022-12-06T04:24:02.628Z,101467.13
2022-12-06T04:25:04.556Z,101467.13
2022-12-06T04:26:09.727Z,101466.28
2022-12-06T04:27:30.108Z,101469.75
2022-12-06T04:28:50.360Z,101467.03
2022-12-06T04:30:10.558Z,101471.38
2022-12-06T04:31:30.884Z,101467.00
2022-12-06T04:32:51.288Z,101467.84
2022-12-06T04:34:11.453Z,101471.34
2022-12-06T04:35:31.694Z,101465.13
2022-12-06T04:36:53.220Z,101466.84
2022-12-06T04:38:15.451Z,101470.34
2022-12-06T04:39:20.950Z,101472.09
2022-12-06T04:40:22.835Z,101472.97
2022-12-06T04:41:42.827Z,101476.44
2022-12-06T04:43:03.024Z,101477.22
2022-12-06T04:44:07.053Z,101477.22
2022-12-06T04:45:10.246Z,101475.44
2022-12-06T04:46:14.125Z,101474.59
2022-12-06T04:47:17.036Z,101475.44
2022-12-06T04:48:18.633Z,101473.66
2022-12-06T04:49:21.236Z,101471.88
2022-12-06T04:50:23.696Z,101463.16
2022-12-06T04:51:25.526Z,101474.44
2022-12-06T04:52:34.203Z,101469.94
2022-12-06T04:53:37.601Z,101469.03
2022-12-06T04:54:40.630Z,101469.13
2022-12-06T04:55:45.464Z,101472.53
2022-12-06T04:56:48.083Z,101469.78
2022-12-06T04:57:50.908Z,101468.88
2022-12-06T04:58:52.436Z,101469.78
2022-12-06T04:59:55.135Z,101461.00
2022-12-06T05:00:56.780Z,101464.53
2022-12-06T05:01:59.282Z,101468.97
2022-12-06T05:03:00.800Z,101468.13
2022-12-06T05:04:03.298Z,101467.25
2022-12-06T05:05:05.742Z,101471.66
2022-12-06T05:06:08.997Z,101469.03
2022-12-06T05:07:11.551Z,101466.50
2022-12-06T05:08:15.494Z,101470.91
2022-12-06T05:09:17.096Z,101480.56
2022-12-06T05:10:19.798Z,101470.09
2022-12-06T05:11:21.498Z,101473.53
2022-12-06T05:12:24.777Z,101475.34
2022-12-06T05:13:26.305Z,101472.72
2022-12-06T05:14:29.395Z,101472.72
2022-12-06T05:15:31.429Z,101471.81
2022-12-06T05:16:34.043Z,101465.69
2022-12-06T05:17:35.690Z,101463.91
2022-12-06T05:18:38.320Z,101474.44
2022-12-06T05:19:40.875Z,101475.34
2022-12-06T05:20:42.389Z,101470.94
2022-12-06T05:21:44.894Z,101473.59
2022-12-06T05:22:46.990Z,101477.06
2022-12-06T05:23:53.230Z,101468.25
2022-12-06T05:24:54.848Z,101470.91
2022-12-06T05:25:59.629Z,101477.84
2022-12-06T05:27:02.601Z,101475.22
2022-12-06T05:28:04.504Z,101469.03
2022-12-06T05:29:07.053Z,101462.06
2022-12-06T05:30:09.698Z,101461.13
2022-12-06T05:31:12.622Z,101464.53
2022-12-06T05:32:14.285Z,101465.47
2022-12-06T05:33:16.752Z,101457.59
2022-12-06T05:34:19.253Z,101462.84
2022-12-06T05:35:21.016Z,101467.16
2022-12-06T05:36:25.998Z,101467.16
2022-12-06T05:37:27.520Z,101467.09
2022-12-06T05:38:30.000Z,101467.97
2022-12-06T05:39:34.021Z,101465.34
2022-12-06T05:40:35.557Z,101469.69
2022-12-06T05:41:38.069Z,101466.19
2022-12-06T05:42:40.262Z,101465.34
2022-12-06T05:43:43.020Z,101469.69
2022-12-06T05:44:44.763Z,101466.09
2022-12-06T05:45:47.322Z,101459.94
2022-12-06T05:46:48.857Z,101461.63
2022-12-06T05:47:51.353Z,101464.28
2022-12-06T05:48:52.851Z,101467.72
2022-12-06T05:49:55.310Z,101460.69
2022-12-06T05:50:56.948Z,101462.47
2022-12-06T05:52:03.844Z,101460.69
2022-12-06T05:53:06.039Z,101460.69
2022-12-06T05:54:08.543Z,101463.25
2022-12-06T05:55:11.449Z,101462.41
2022-12-06T05:56:14.552Z,101465.03
2022-12-06T05:57:16.140Z,101474.69
2022-12-06T05:58:19.677Z,101463.31
2022-12-06T05:59:21.306Z,101470.31
2022-12-06T06:00:24.097Z,101458.06
2022-12-06T06:01:25.648Z,101464.19
2022-12-06T06:02:28.298Z,101465.91
2022-12-06T06:03:30.073Z,101464.13
2022-12-06T06:04:32.627Z,101469.28
2022-12-06T06:05:35.151Z,101468.44
2022-12-06T06:06:36.683Z,101469.28
2022-12-06T06:07:39.456Z,101463.97
2022-12-06T06:08:41.921Z,101459.56
2022-12-06T06:09:44.403Z,101464.81
2022-12-06T06:10:47.320Z,101468.28
2022-12-06T06:11:49.824Z,101468.28
2022-12-06T06:12:51.318Z,101464.75
2022-12-06T06:13:54.677Z,101469.09
2022-12-06T06:14:56.181Z,101463.88
2022-12-06T06:15:59.228Z,101470.84
2022-12-06T06:17:00.804Z,101466.44
2022-12-06T06:18:03.499Z,101466.34
2022-12-06T06:19:06.101Z,101470.81
2022-12-06T06:20:09.458Z,101463.81
2022-12-06T06:21:11.926Z,101468.16
2022-12-06T06:22:14.291Z,101465.53
2022-12-06T06:23:16.878Z,101473.34
2022-12-06T06:24:18.456Z,101474.19
2022-12-06T06:25:21.329Z,101463.66
2022-12-06T06:26:24.316Z,101462.75
2022-12-06T06:27:26.992Z,101468.78
2022-12-06T06:28:29.476Z,101465.28
2022-12-06T06:29:31.155Z,101467.88
2022-12-06T06:30:33.659Z,101475.75
2022-12-06T06:31:35.503Z,101470.50
2022-12-06T06:32:38.416Z,101473.91
2022-12-06T06:33:40.927Z,101470.34
2022-12-06T06:34:42.770Z,101469.41
2022-12-06T06:35:45.278Z,101472.03
2022-12-06T06:36:46.855Z,101474.59
2022-12-06T06:37:49.739Z,101470.25
2022-12-06T06:38:51.508Z,101473.75
2022-12-06T06:39:55.184Z,101472.81
2022-12-06T06:40:57.729Z,101470.19
2022-12-06T06:42:00.634Z,101457.94
2022-12-06T06:43:17.959Z,101465.78
2022-12-06T06:44:20.725Z,101465.78
2022-12-06T06:45:28.429Z,101461.38
2022-12-06T06:46:30.794Z,101456.13
2022-12-06T06:47:37.602Z,101456.13
2022-12-06T06:48:40.793Z,101461.38
2022-12-06T06:49:42.355Z,101461.38
2022-12-06T06:50:44.931Z,101470.03
2022-12-06T06:51:46.578Z,101464.78
2022-12-06T06:52:49.092Z,101466.50
2022-12-06T06:53:51.591Z,101462.06
2022-12-06T06:54:53.467Z,101469.03
2022-12-06T06:55:56.307Z,101467.31
2022-12-06T06:56:58.150Z,101473.44
2022-12-06T06:58:02.105Z,101474.38
2022-12-06T06:59:03.734Z,101469.19
2022-12-06T07:00:08.100Z,101464.84
2022-12-06T07:01:17.568Z,101465.78
2022-12-06T07:02:20.147Z,101464.94
2022-12-06T07:03:22.858Z,101467.56
2022-12-06T07:04:25.363Z,101465.84
2022-12-06T07:05:28.197Z,101467.56
2022-12-06T07:06:30.594Z,101474.53
2022-12-06T07:07:33.110Z,101466.66
2022-12-06T07:08:34.675Z,101461.38
2022-12-06T07:09:37.487Z,101468.31
2022-12-06T07:10:39.056Z,101469.19
2022-12-06T07:11:41.599Z,101467.41
2022-12-06T07:12:43.107Z,101463.84
2022-12-06T07:13:52.539Z,101466.50
2022-12-06T07:14:57.179Z,101459.41
2022-12-06T07:15:59.137Z,101462.91
2022-12-06T07:17:01.870Z,101469.03
2022-12-06T07:18:03.601Z,101463.75
2022-12-06T07:19:08.979Z,101460.38
2022-12-06T07:20:11.297Z,101463.84
2022-12-06T07:21:15.520Z,101464.63
2022-12-06T07:22:17.089Z,101466.34
2022-12-06T07:23:19.578Z,101468.88
2022-12-06T07:24:27.233Z,101462.69
2022-12-06T07:25:28.912Z,101465.25
2022-12-06T07:26:31.438Z,101467.88
2022-12-06T07:27:36.613Z,101461.78
2022-12-06T07:28:39.626Z,101460.06
2022-12-06T07:29:43.523Z,101456.50
2022-12-06T07:30:45.215Z,101467.88
2022-12-06T07:31:47.706Z,101459.97
2022-12-06T07:32:49.338Z,101461.78
2022-12-06T07:33:53.398Z,101465.25
2022-12-06T07:34:55.983Z,101467.03
2022-12-06T07:36:12.071Z,101467.88
2022-12-06T07:37:19.001Z,101462.59
2022-12-06T07:38:20.735Z,101467.03
2022-12-06T07:39:23.549Z,101467.88
2022-12-06T07:40:48.182Z,101464.31
2022-12-06T07:42:05.124Z,101470.44
2022-12-06T07:43:39.821Z,101478.34
2022-12-06T07:45:03.056Z,101468.66
2022-12-06T07:46:11.256Z,101466.03
2022-12-06T07:47:13.795Z,101466.03
2022-12-06T07:48:16.260Z,101465.13
2022-12-06T07:49:18.686Z,101470.38
2022-12-06T07:50:23.882Z,101474.69
2022-12-06T07:51:25.411Z,101471.16
2022-12-06T07:52:32.267Z,101467.59
2022-12-06T07:53:33.807Z,101469.28
2022-12-06T07:54:36.356Z,101468.41
2022-12-06T07:55:38.903Z,101470.22
2022-12-06T07:56:41.232Z,101468.34
2022-12-06T07:57:44.399Z,101472.78
2022-12-06T07:58:46.019Z,101472.72
2022-12-06T07:59:49.898Z,101474.38
2022-12-06T08:00:51.562Z,101476.09
2022-12-06T08:01:54.854Z,101473.47
2022-12-06T08:02:57.501Z,101477.97
2022-12-06T08:03:59.588Z,101482.28
2022-12-06T08:05:02.085Z,101485.72
2022-12-06T08:06:03.751Z,101478.75
2022-12-06T08:07:06.269Z,101488.25
2022-12-06T08:08:08.811Z,101490.03
2022-12-06T08:09:10.370Z,101484.72
2022-12-06T08:10:12.915Z,101488.19
2022-12-06T08:11:14.446Z,101486.44
2022-12-06T08:12:16.937Z,101492.47
2022-12-06T08:13:18.563Z,101488.97
2022-12-06T08:14:21.365Z,101492.41
2022-12-06T08:15:25.370Z,101496.72
2022-12-06T08:16:26.953Z,101494.16
2022-12-06T08:17:30.806Z,101500.28
2022-12-06T08:18:32.696Z,101497.66
2022-12-06T08:19:35.221Z,101495.03
2022-12-06T08:20:38.704Z,101494.06
2022-12-06T08:21:41.171Z,101496.72
2022-12-06T08:22:43.661Z,101494.88
2022-12-06T08:23:45.246Z,101494.88
2022-12-06T08:24:47.884Z,101499.19
2022-12-06T08:25:56.614Z,101500.91
2022-12-06T08:27:00.031Z,101497.41
2022-12-06T08:28:01.565Z,101503.53
2022-12-06T08:29:04.938Z,101503.53
2022-12-06T08:30:09.017Z,101502.69
2022-12-06T08:31:16.081Z,101501.81
2022-12-06T08:32:18.796Z,101499.19
2022-12-06T08:33:21.809Z,101500.00
2022-12-06T08:34:24.282Z,101502.63
2022-12-06T08:35:25.837Z,101495.56
2022-12-06T08:36:28.801Z,101498.22
2022-12-06T08:37:30.298Z,101502.53
2022-12-06T08:38:32.838Z,101499.84
2022-12-06T08:39:35.392Z,101497.19
2022-12-06T08:40:36.942Z,101501.53
2022-12-06T08:41:59.065Z,101502.31
2022-12-06T08:43:00.572Z,101492.63
2022-12-06T08:44:04.364Z,101495.16
2022-12-06T08:45:08.020Z,101490.84
2022-12-06T08:46:09.643Z,101497.81
2022-12-06T08:47:13.552Z,101499.53
2022-12-06T08:48:15.175Z,101504.78
2022-12-06T08:49:18.969Z,101502.09
2022-12-06T08:50:21.535Z,101501.22
2022-12-06T08:51:24.004Z,101503.78
2022-12-06T08:52:26.509Z,101502.84
2022-12-06T08:53:27.988Z,101508.13
2022-12-06T08:54:30.847Z,101509.91
2022-12-06T08:55:32.330Z,101510.75
2022-12-06T08:56:34.901Z,101507.25
2022-12-06T08:57:37.432Z,101511.63
2022-12-06T08:58:39.909Z,101516.88
2022-12-06T08:59:42.500Z,101507.25
2022-12-06T09:00:44.039Z,101516.09
2022-12-06T09:01:47.359Z,101508.19
2022-12-06T09:02:51.258Z,101504.63
2022-12-06T09:03:53.093Z,101512.53
2022-12-06T09:04:55.606Z,101513.47
2022-12-06T09:06:01.154Z,101511.63
2022-12-06T09:07:07.410Z,101511.53
2022-12-06T09:08:11.749Z,101511.63
2022-12-06T09:09:16.267Z,101515.09
2022-12-06T09:10:17.853Z,101511.63
2022-12-06T09:11:21.096Z,101518.56
2022-12-06T09:12:24.477Z,101516.78
2022-12-06T09:13:26.039Z,101526.47
2022-12-06T09:14:28.544Z,101525.50
2022-12-06T09:15:31.420Z,101519.28
2022-12-06T09:16:33.174Z,101519.28
2022-12-06T09:17:36.718Z,101518.34
2022-12-06T09:18:39.749Z,101516.56
2022-12-06T09:19:42.241Z,101514.69
2022-12-06T09:20:43.988Z,101516.41
2022-12-06T09:21:46.537Z,101517.28
2022-12-06T09:22:48.232Z,101523.41
2022-12-06T09:23:51.557Z,101518.91
2022-12-06T09:24:56.185Z,101522.44
2022-12-06T09:25:58.678Z,101514.53
2022-12-06T09:27:01.202Z,101520.66
2022-12-06T09:28:03.252Z,101522.38
2022-12-06T09:29:06.060Z,101523.25
2022-12-06T09:30:08.750Z,101522.44
2022-12-06T09:31:11.945Z,101525.09
2022-12-06T09:32:14.592Z,101520.78
2022-12-06T09:33:16.422Z,101524.22
2022-12-06T09:34:20.719Z,101521.53
2022-12-06T09:35:25.222Z,101522.38
2022-12-06T09:36:29.926Z,101524.94
2022-12-06T09:37:33.571Z,101524.94
2022-12-06T09:38:37.529Z,101524.94
2022-12-06T09:39:43.634Z,101526.66
2022-12-06T09:40:58.081Z,101516.09
2022-12-06T09:42:25.134Z,101529.28
2022-12-06T09:43:43.761Z,101525.78
2022-12-06T09:45:08.408Z,101532.06
2022-12-06T09:46:29.311Z,101530.34
2022-12-06T09:47:47.914Z,101533.00
2022-12-06T09:52:05.231Z,101534.88
2022-12-06T09:53:19.412Z,101534.09
2022-12-06T09:54:33.757Z,101538.50
2022-12-06T09:55:48.719Z,101541.16
2022-12-06T09:56:54.539Z,101533.16
2022-12-06T09:58:04.940Z,101533.16
2022-12-06T09:59:16.271Z,101531.31
2022-12-06T10:00:23.169Z,101533.00
2022-12-06T10:01:38.925Z,101527.66
2022-12-06T10:03:02.248Z,101530.19
2022-12-06T10:07:17.177Z,101526.44
2022-12-06T10:08:33.299Z,101533.47
2022-12-06T10:09:45.537Z,101527.28
2022-12-06T10:10:57.503Z,101527.19
2022-12-06T10:12:16.325Z,101527.19
2022-12-06T10:13:30.943Z,101528.91
2022-12-06T10:14:48.089Z,101524.50
2022-12-06T10:15:57.075Z,101526.16
2022-12-06T10:17:08.701Z,101523.53
2022-12-06T10:18:26.388Z,101526.16
2022-12-06T10:19:39.557Z,101526.16
2022-12-06T10:20:46.413Z,101521.75
2022-12-06T10:22:00.788Z,101526.97
2022-12-06T10:23:15.087Z,101515.47
2022-12-06T10:24:39.015Z,101517.19
2022-12-06T10:25:43.422Z,101511.06
2022-12-06T10:26:50.484Z,101514.53
2022-12-06T10:28:02.629Z,101511.00
2022-12-06T10:29:16.793Z,101509.13
2022-12-06T10:30:21.613Z,101513.47
2022-12-06T10:31:30.411Z,101510.84
2022-12-06T10:32:51.290Z,101516.97
2022-12-06T10:33:57.369Z,101506.41
2022-12-06T10:35:13.448Z,101501.03
2022-12-06T10:36:21.737Z,101501.84
2022-12-06T10:37:41.616Z,101504.47
2022-12-06T10:38:49.631Z,101503.63
2022-12-06T10:39:58.839Z,101511.59
2022-12-06T10:41:10.787Z,101506.31
2022-12-06T10:42:21.973Z,101508.03
2022-12-06T10:43:30.132Z,101501.84
2022-12-06T10:44:38.770Z,101507.88
2022-12-06T10:46:08.437Z,101504.22
2022-12-06T10:47:16.629Z,101502.28
2022-12-06T10:48:33.873Z,101498.72
2022-12-06T10:49:42.641Z,101500.44
2022-12-06T10:50:51.541Z,101501.19
2022-12-06T10:51:57.462Z,101499.31
2022-12-06T10:53:04.875Z,101500.09
2022-12-06T10:54:19.235Z,101501.63
2022-12-06T10:55:30.550Z,101498.06
2022-12-06T10:56:37.746Z,101497.03
2022-12-06T10:57:45.768Z,101496.88
2022-12-06T10:58:55.074Z,101502.09
2022-12-06T11:00:03.666Z,101498.44
2022-12-06T11:01:13.297Z,101494.88
2022-12-06T11:02:29.254Z,101491.31
2022-12-06T11:03:37.924Z,101492.13
2022-12-06T11:04:41.934Z,101492.13
2022-12-06T11:05:49.695Z,101481.59
2022-12-06T11:06:56.645Z,101492.13
2022-12-06T11:08:04.443Z,101478.03
2022-12-06T11:09:14.856Z,101486.78
2022-12-06T11:10:20.746Z,101484.16
2022-12-06T11:11:29.413Z,101484.16
2022-12-06T11:12:35.413Z,101482.22
2022-12-06T11:13:43.289Z,101489.19
2022-12-06T11:14:49.612Z,101481.19
2022-12-06T11:15:56.967Z,101486.38
2022-12-06T11:17:04.983Z,101488.94
2022-12-06T11:18:12.114Z,101481.00
2022-12-06T11:19:24.507Z,101486.22
2022-12-06T11:20:30.987Z,101485.25
2022-12-06T11:21:42.088Z,101486.22
2022-12-06T11:22:51.296Z,101482.72
2022-12-06T11:24:01.052Z,101478.31
2022-12-06T11:25:11.932Z,101483.66
2022-12-06T11:26:23.035Z,101477.63
2022-12-06T11:27:34.504Z,101476.75
2022-12-06T11:28:38.276Z,101473.28
2022-12-06T11:29:42.940Z,101475.91
2022-12-06T11:30:44.494Z,101476.69
2022-12-06T11:31:49.957Z,101477.53
2022-12-06T11:32:52.636Z,101477.34
2022-12-06T11:33:55.769Z,101475.50
2022-12-06T11:35:01.446Z,101471.78
2022-12-06T11:36:08.421Z,101477.88
2022-12-06T11:37:16.720Z,101479.53
2022-12-06T11:38:23.587Z,101479.53
2022-12-06T11:39:26.936Z,101479.41
2022-12-06T11:40:33.194Z,101480.28
2022-12-06T11:41:37.972Z,101473.28
2022-12-06T11:42:41.238Z,101485.56
2022-12-06T11:43:43.837Z,101470.66
2022-12-06T11:44:51.854Z,101484.69
2022-12-06T11:45:56.420Z,101473.28
2022-12-06T11:47:01.231Z,101476.03
2022-12-06T11:48:13.661Z,101479.53
2022-12-06T11:49:19.929Z,101473.28
2022-12-06T11:50:22.597Z,101475.00
2022-12-06T11:51:26.182Z,101478.38
2022-12-06T11:52:33.922Z,101478.22
2022-12-06T11:53:40.947Z,101483.44
2022-12-06T11:54:47.939Z,101485.03
2022-12-06T11:55:54.383Z,101478.84
2022-12-06T11:57:01.562Z,101481.47
2022-12-06T11:58:10.403Z,101480.72
2022-12-06T11:59:25.780Z,101481.47
2022-12-06T12:00:30.891Z,101482.34
2022-12-06T12:01:43.198Z,101482.22
2022-12-06T12:02:46.569Z,101473.56
2022-12-06T12:03:52.401Z,101482.16
2022-12-06T12:05:07.682Z,101472.47
2022-12-06T12:06:18.980Z,101475.84
2022-12-06T12:07:24.751Z,101474.16
2022-12-06T12:08:32.837Z,101473.31
2022-12-06T12:09:45.850Z,101477.63
2022-12-06T12:10:59.344Z,101469.81
2022-12-06T12:12:07.491Z,101472.47
2022-12-06T12:13:38.787Z,101472.47
2022-12-06T12:14:46.479Z,101469.03
2022-12-06T12:15:54.195Z,101470.91
2022-12-06T12:17:00.566Z,101465.63
2022-12-06T12:18:05.125Z,101469.22
2022-12-06T12:19:32.138Z,101463.94
2022-12-06T12:20:38.011Z,101455.25
2022-12-06T12:21:42.623Z,101462.25
2022-12-06T12:22:45.201Z,101455.31
2022-12-06T12:23:48.043Z,101451.84
2022-12-06T12:26:17.507Z,101455.44
2022-12-06T12:27:44.922Z,101454.47
2022-12-06T12:29:05.439Z,101451.84
2022-12-06T12:30:23.124Z,101451.84
2022-12-06T12:31:26.400Z,101454.47
2022-12-06T12:32:27.993Z,101452.44
2022-12-06T12:33:30.700Z,101449.63
2022-12-06T12:34:33.216Z,101455.78
2022-12-06T12:35:36.683Z,101457.56
2022-12-06T12:36:48.859Z,101457.56
2022-12-06T12:37:53.909Z,101446.13
2022-12-06T12:39:00.623Z,101454.91
2022-12-06T12:40:07.464Z,101457.56
2022-12-06T12:41:33.888Z,101457.56
2022-12-06T12:42:36.504Z,101460.19
2022-12-06T12:43:40.694Z,101462.75